Time;durP1;ratioP1;P1;durP2;ratioP2;P2;SDS_P1;SDS_P2;PMS_P1;PMS_P2;Temp;Humidity;BMP_temperature;BMP_pressure;BME280_temperature;BME280_humidity;BME280_pressure;Samples;Min_cycle;Max_cycle;Signal;HPM_P1;HPM_P2
2022/05/01 00:00:32;;;;;;;2.22;2.02;;;;;;;17.45;50.78;100475.45;1852109;77;21064;-65
2022/05/01 00:02:59;;;;;;;2.05;1.85;;;;;;;17.43;50.79;100470.27;1855539;76;21522;-65
2022/05/01 00:05:26;;;;;;;2.30;2.10;;;;;;;17.43;50.80;100472.13;1860332;77;21229;-65
2022/05/01 00:07:53;;;;;;;2.00;1.55;;;;;;;17.42;50.80;100476.67;1860170;77;21489;-64
2022/05/01 00:10:20;;;;;;;1.90;1.80;;;;;;;17.41;50.81;100473.66;1860260;77;21048;-65
2022/05/01 00:12:46;;;;;;;3.15;2.00;;;;;;;17.40;50.81;100477.39;1860048;77;21056;-64
2022/05/01 00:15:13;;;;;;;2.02;1.80;;;;;;;17.40;50.80;100477.39;1860284;77;21072;-64
2022/05/01 00:17:40;;;;;;;2.02;1.82;;;;;;;17.39;50.81;100481.08;1860174;77;21167;-64
2022/05/01 00:20:08;;;;;;;1.90;1.70;;;;;;;17.39;50.81;100482.95;1857021;76;21017;-65
2022/05/01 00:22:35;;;;;;;2.02;1.75;;;;;;;17.37;50.85;100479.62;1847411;77;20991;-64
2022/05/01 00:25:01;;;;;;;2.08;1.80;;;;;;;17.36;50.83;100485.48;1840596;78;20974;-64
2022/05/01 00:27:29;;;;;;;2.47;1.90;;;;;;;17.35;50.84;100483.84;1840801;78;21038;-65
2022/05/01 00:29:56;;;;;;;2.30;2.10;;;;;;;17.34;50.84;100481.34;1840526;78;21126;-65
2022/05/01 00:32:25;;;;;;;2.22;2.02;;;;;;;17.33;50.85;100487.76;1840402;78;21018;-65
2022/05/01 00:37:37;;;;;;;2.20;2.00;;;;;;;17.31;50.88;100496.00;1846578;76;21009;-65
2022/05/01 00:40:05;;;;;;;2.25;2.05;;;;;;;17.30;50.88;100503.72;1847893;77;21072;-65
2022/05/01 00:42:31;;;;;;;2.08;1.85;;;;;;;17.30;50.85;100499.70;1847769;77;21136;-64
2022/05/01 00:44:58;;;;;;;2.10;1.90;;;;;;;17.28;50.88;100501.23;1847827;77;20994;-64
2022/05/01 00:47:25;;;;;;;1.85;1.75;;;;;;;17.28;50.88;100499.06;1847848;77;21012;-64
2022/05/01 00:49:52;;;;;;;2.33;2.12;;;;;;;17.27;50.90;100502.79;1847884;77;21054;-65
2022/05/01 00:52:19;;;;;;;3.05;2.15;;;;;;;17.26;50.89;100498.42;1847836;77;21059;-65
2022/05/01 00:54:47;;;;;;;2.45;2.10;;;;;;;17.25;50.90;100502.16;1842096;76;21190;-65
2022/05/01 00:57:14;;;;;;;1.75;1.65;;;;;;;17.25;50.90;100499.47;1839896;78;20991;-65
2022/05/01 00:59:41;;;;;;;1.90;1.75;;;;;;;17.23;50.89;100500.14;1839783;77;20994;-66
2022/05/01 01:02:08;;;;;;;1.62;1.52;;;;;;;17.22;50.90;100497.16;1840129;78;21502;-65
2022/05/01 01:04:35;;;;;;;1.87;1.70;;;;;;;17.21;50.90;100504.39;1839925;78;21173;-65
2022/05/01 01:07:02;;;;;;;1.80;1.70;;;;;;;17.20;50.93;100500.55;1839816;78;21106;-65
2022/05/01 01:09:29;;;;;;;2.15;1.90;;;;;;;17.19;50.94;100502.90;1839968;77;21519;-65
2022/05/01 01:14:42;;;;;;;1.87;1.77;;;;;;;17.17;50.92;100508.48;1839780;78;20967;-64
2022/05/01 01:17:10;;;;;;;2.12;1.92;;;;;;;17.16;50.95;100506.81;1840286;78;21006;-65
2022/05/01 01:19:37;;;;;;;1.87;1.72;;;;;;;17.15;50.94;100499.77;1839862;78;21138;-64
2022/05/01 01:22:05;;;;;;;1.98;1.80;;;;;;;17.14;50.95;100505.35;1839929;77;20982;-64
2022/05/01 01:24:35;;;;;;;1.95;1.80;;;;;;;17.13;50.95;100504.50;1839851;78;21599;-64
2022/05/01 01:27:01;;;;;;;2.45;2.17;;;;;;;17.12;50.93;100506.06;1839572;76;21013;-64
2022/05/01 01:32:13;;;;;;;2.08;1.87;;;;;;;17.10;50.96;100503.04;1847934;77;21361;-65
2022/05/01 01:34:40;;;;;;;1.87;1.77;;;;;;;17.09;50.97;100504.56;1847765;77;20978;-65
2022/05/01 01:37:07;;;;;;;2.20;2.00;;;;;;;17.08;50.96;100501.58;1847802;77;21078;-64
2022/05/01 01:39:34;;;;;;;2.22;2.02;;;;;;;17.08;50.98;100500.23;1844945;77;20985;-63
2022/05/01 01:42:04;;;;;;;2.02;1.90;;;;;;;17.07;50.99;100507.47;1847740;77;21029;-65
2022/05/01 01:44:31;;;;;;;1.90;1.80;;;;;;;17.05;50.98;100499.27;1854479;76;21134;-65
2022/05/01 01:46:58;;;;;;;2.30;1.65;;;;;;;17.05;50.97;100501.43;1797038;79;21046;-65
2022/05/01 01:49:24;;;;;;;2.20;2.00;;;;;;;17.04;50.99;100502.47;1798481;79;21014;-65
2022/05/01 01:51:51;;;;;;;1.77;1.67;;;;;;;17.04;50.98;100507.02;1873985;76;20955;-64
2022/05/01 01:54:18;;;;;;;2.10;1.87;;;;;;;17.03;50.99;100504.00;1874219;76;21529;-65
2022/05/01 01:56:45;;;;;;;2.30;2.10;;;;;;;17.02;51.01;100512.57;1873937;76;21118;-64
2022/05/01 01:59:11;;;;;;;2.20;1.82;;;;;;;17.01;51.00;100508.21;1797137;79;21022;-65
2022/05/01 02:01:43;;;;;;;1.92;1.82;;;;;;;17.00;51.00;100511.94;1797231;79;21547;-64
2022/05/01 02:04:10;;;;;;;2.10;1.90;;;;;;;17.00;51.00;100516.48;1798416;79;20990;-65
2022/05/01 02:06:37;;;;;;;2.50;2.30;;;;;;;16.99;51.00;100518.83;1874002;76;20989;-65
2022/05/01 02:09:06;;;;;;;2.62;1.90;;;;;;;16.98;51.01;100517.15;1797201;79;21086;-65
2022/05/01 02:11:36;;;;;;;2.22;2.02;;;;;;;16.97;51.02;100521.70;1798443;79;21018;-64
2022/05/01 02:14:03;;;;;;;1.80;1.70;;;;;;;16.95;51.03;100519.72;1798338;79;21018;-64
2022/05/01 02:16:29;;;;;;;2.05;1.67;;;;;;;16.95;51.02;100518.37;1797215;79;20999;-64
2022/05/01 02:18:57;;;;;;;2.35;1.98;;;;;;;16.95;51.04;100521.58;1797142;79;21684;-65
2022/05/01 02:21:40;;;;;;;2.08;1.90;;;;;;;16.94;51.03;100527.95;1798367;79;21214;-65
2022/05/01 02:24:08;;;;;;;1.90;1.80;;;;;;;16.93;51.04;100519.59;1798348;79;21003;-64
2022/05/01 02:26:35;;;;;;;2.15;1.90;;;;;;;16.91;51.03;100523.80;1874312;76;21060;-64
2022/05/01 02:29:09;;;;;;;2.30;2.10;;;;;;;16.90;51.06;100527.02;1874106;76;20978;-65
2022/05/01 02:31:40;;;;;;;2.10;2.00;;;;;;;16.89;51.06;100525.33;1797477;79;21022;-65
2022/05/01 02:34:07;;;;;;;2.00;1.80;;;;;;;16.89;51.08;100527.19;1798328;79;21089;-65
2022/05/01 02:36:34;;;;;;;2.40;2.20;;;;;;;16.87;51.08;100527.38;1768058;79;21001;-65
2022/05/01 02:39:00;;;;;;;2.60;2.17;;;;;;;16.86;51.09;100517.69;1769541;81;21644;-64
2022/05/01 02:41:28;;;;;;;1.90;1.80;;;;;;;16.86;51.09;100520.85;1769471;81;21027;-65
2022/05/01 02:43:56;;;;;;;2.30;2.10;;;;;;;16.85;51.11;100526.73;1769517;81;21522;-65
2022/05/01 02:46:26;;;;;;;2.40;2.08;;;;;;;16.85;51.11;100524.05;1802499;79;21129;-64
2022/05/01 02:48:52;;;;;;;2.30;2.05;;;;;;;16.84;51.11;100527.78;1802722;79;21033;-65
2022/05/01 02:51:19;;;;;;;2.35;2.15;;;;;;;16.84;51.12;100533.14;1802645;79;21553;-65
2022/05/01 02:53:45;;;;;;;2.47;2.22;;;;;;;16.83;51.13;100524.76;1781084;79;21025;-64
2022/05/01 02:56:13;;;;;;;2.65;2.25;;;;;;;16.83;51.13;100531.98;1775873;80;21096;-64
2022/05/01 02:58:39;;;;;;;2.40;2.20;;;;;;;16.82;51.14;100532.47;1775809;80;21214;-64
2022/05/01 03:01:06;;;;;;;2.45;2.20;;;;;;;16.81;51.15;100531.31;1744982;82;21063;-64
2022/05/01 03:03:33;;;;;;;2.40;2.20;;;;;;;16.80;51.16;100530.98;1775744;80;20974;-66
2022/05/01 03:06:00;;;;;;;2.42;2.10;;;;;;;16.80;51.17;100535.00;1775658;80;21073;-66
2022/05/01 03:08:27;;;;;;;2.33;2.10;;;;;;;16.79;51.18;100537.38;1775981;80;21552;-64
2022/05/01 03:10:55;;;;;;;2.20;1.98;;;;;;;16.78;51.19;100529.00;1804985;78;21241;-65
2022/05/01 03:13:22;;;;;;;2.45;2.17;;;;;;;16.77;51.21;100529.52;1807739;79;21492;-64
2022/05/01 03:15:48;;;;;;;4.12;2.70;;;;;;;16.77;51.23;100536.74;1807591;79;21052;-64
2022/05/01 03:23:46;;;;;;;2.27;2.10;;;;;;;16.76;51.26;100545.28;1807539;79;21529;-65
2022/05/01 03:26:13;;;;;;;2.37;2.17;;;;;;;16.75;51.28;100542.81;1807489;78;21026;-65
2022/05/01 03:28:39;;;;;;;2.58;2.37;;;;;;;16.74;51.30;100548.66;1802454;79;21006;-63
2022/05/01 03:31:09;;;;;;;2.30;1.90;;;;;;;16.74;51.31;100542.47;1802837;79;20984;-64
2022/05/01 03:33:35;;;;;;;2.30;2.10;;;;;;;16.74;51.32;100543.81;1802479;79;21061;-65
2022/05/01 03:36:06;;;;;;;2.58;2.37;;;;;;;16.73;51.33;100543.48;1803108;79;22043;-64
2022/05/01 03:38:40;;;;;;;2.55;2.35;;;;;;;16.73;51.33;100544.81;1807767;79;20992;-65
2022/05/01 03:41:05;;;;;;;2.90;2.60;;;;;;;16.73;51.34;100543.48;1768159;80;21028;-65
2022/05/01 03:43:33;;;;;;;2.72;2.10;;;;;;;16.71;51.36;100547.20;1819700;76;22034;-64
2022/05/01 03:46:00;;;;;;;2.87;2.30;;;;;;;16.71;51.39;100543.17;1847658;77;21025;-65
2022/05/01 03:48:28;;;;;;;3.00;2.65;;;;;;;16.72;51.40;100548.02;1847726;77;21938;-65
2022/05/01 03:50:54;;;;;;;2.72;2.40;;;;;;;16.72;51.41;100550.70;1847581;77;21060;-64
2022/05/01 03:53:21;;;;;;;2.37;2.17;;;;;;;16.73;51.41;100541.65;1847717;77;20998;-65
2022/05/01 03:55:48;;;;;;;2.52;2.33;;;;;;;16.73;51.42;100544.81;1847656;77;21045;-64
2022/05/01 03:58:14;;;;;;;2.50;2.30;;;;;;;16.73;51.41;100543.48;1847842;77;21029;-65
2022/05/01 04:00:44;;;;;;;2.60;2.40;;;;;;;16.73;51.42;100546.16;1846520;77;21075;-65
2022/05/01 04:03:09;;;;;;;3.30;2.60;;;;;;;16.73;51.42;100539.45;1847346;77;20985;-65
2022/05/01 04:05:36;;;;;;;2.50;2.30;;;;;;;16.73;51.42;100540.31;1847634;77;20958;-65
2022/05/01 04:08:03;;;;;;;2.40;2.20;;;;;;;16.73;51.44;100545.67;1847729;77;21048;-64
2022/05/01 04:10:30;;;;;;;3.10;2.62;;;;;;;16.73;51.45;100544.34;1847882;77;20994;-64
2022/05/01 04:12:58;;;;;;;2.70;2.45;;;;;;;16.73;51.44;100545.67;1847802;77;21013;-64
2022/05/01 04:15:25;;;;;;;2.58;2.27;;;;;;;16.74;51.46;100548.66;1847775;77;21010;-65
2022/05/01 04:17:51;;;;;;;2.80;2.42;;;;;;;16.74;51.46;100546.50;1845311;76;21027;-65
2022/05/01 04:20:18;;;;;;;3.00;2.70;;;;;;;16.74;51.46;100550.00;1839910;78;21490;-65
2022/05/01 04:22:47;;;;;;;2.92;2.20;;;;;;;16.75;51.45;100553.55;1839771;77;21061;-65
2022/05/01 04:25:21;;;;;;;2.60;2.27;;;;;;;16.75;51.44;100549.52;1839807;77;21751;-65
2022/05/01 04:27:52;;;;;;;3.33;2.75;;;;;;;16.74;51.45;100552.69;1839536;77;21506;-65
2022/05/01 04:30:20;;;;;;;4.00;2.30;;;;;;;16.76;51.44;100559.21;1839617;77;21474;-64
2022/05/01 04:32:54;;;;;;;3.02;2.72;;;;;;;16.75;51.44;100561.08;1839768;78;21041;-65
2022/05/01 04:35:40;;;;;;;2.75;2.50;;;;;;;16.77;51.45;100564.91;1841435;76;20988;-65
2022/05/01 04:38:19;;;;;;;2.33;2.12;;;;;;;16.76;51.44;100561.38;1847490;77;21134;-64
2022/05/01 04:40:58;;;;;;;3.77;2.47;;;;;;;16.77;51.44;100562.23;1847525;77;20985;-64
2022/05/01 04:43:26;;;;;;;2.65;2.40;;;;;;;16.77;51.46;100568.94;1847827;77;20994;-65
2022/05/01 04:45:57;;;;;;;2.60;2.40;;;;;;;16.77;51.46;100569.77;1847849;77;21064;-64
2022/05/01 04:48:25;;;;;;;2.87;2.45;;;;;;;16.76;51.48;100572.11;1848016;77;20998;-63
2022/05/01 04:50:52;;;;;;;2.33;2.10;;;;;;;16.77;51.46;100569.77;1848001;76;21293;-65
2022/05/01 04:53:21;;;;;;;2.40;2.20;;;;;;;16.79;51.49;100568.23;1814496;79;21053;-65
2022/05/01 04:55:49;;;;;;;2.92;2.45;;;;;;;16.81;51.49;100572.39;1814500;79;21057;-65
2022/05/01 04:58:16;;;;;;;2.62;2.33;;;;;;;16.81;51.47;100569.70;1814734;79;21048;-64
2022/05/01 05:00:43;;;;;;;2.52;2.20;;;;;;;16.82;51.47;100567.36;1814529;79;21076;-64
2022/05/01 05:03:10;;;;;;;2.75;2.30;;;;;;;16.84;51.46;100568.03;1814564;79;21951;-64
2022/05/01 05:05:36;;;;;;;2.30;2.10;;;;;;;16.85;51.45;100571.02;1814505;79;21009;-63
2022/05/01 05:10:49;;;;;;;3.02;2.62;;;;;;;16.89;51.44;100571.47;1814662;78;21496;-64
2022/05/01 05:13:23;;;;;;;2.77;2.55;;;;;;;16.90;51.42;100568.61;1814645;79;20986;-65
2022/05/01 05:15:47;;;;;;;3.27;2.60;;;;;;;16.92;51.42;100572.45;1813830;78;21138;-64
2022/05/01 05:18:14;;;;;;;2.25;1.90;;;;;;;16.94;51.41;100571.75;1814621;79;21033;-64
2022/05/01 05:20:40;;;;;;;2.75;2.25;;;;;;;16.95;51.42;100572.05;1814497;78;20994;-65
2022/05/01 05:23:07;;;;;;;2.87;2.22;;;;;;;16.97;51.40;100575.89;1814437;78;21026;-65
2022/05/01 05:25:33;;;;;;;2.10;1.90;;;;;;;16.97;51.39;100565.98;1815865;77;21441;-64
2022/05/01 05:28:01;;;;;;;3.10;2.50;;;;;;;16.99;51.38;100571.99;1814542;79;21844;-65
2022/05/01 05:30:27;;;;;;;2.85;2.20;;;;;;;17.01;51.37;100571.29;1814477;79;21021;-64
2022/05/01 05:32:54;;;;;;;2.75;2.35;;;;;;;17.02;51.38;100567.59;1814639;79;21002;-64
2022/05/01 05:35:20;;;;;;;2.72;1.82;;;;;;;17.04;51.38;100558.84;1814611;78;21490;-64
2022/05/01 05:37:47;;;;;;;2.58;2.35;;;;;;;17.05;51.33;100568.54;1841970;77;21076;-66
2022/05/01 05:40:13;;;;;;;2.92;2.30;;;;;;;17.08;51.36;100561.98;1847916;77;21102;-65
2022/05/01 05:42:44;;;;;;;2.25;2.00;;;;;;;17.10;51.34;100557.25;1847864;76;21462;-64
2022/05/01 05:45:12;;;;;;;2.55;2.35;;;;;;;17.14;51.31;100568.44;1825012;77;21485;-64
2022/05/01 05:47:38;;;;;;;2.58;2.37;;;;;;;17.16;51.29;100559.16;1847662;77;20994;-64
2022/05/01 05:50:07;;;;;;;2.58;2.37;;;;;;;17.19;51.29;100567.34;1847811;77;21084;-64
2022/05/01 05:52:33;;;;;;;2.70;2.30;;;;;;;17.22;51.29;100564.28;1848098;77;21044;-65
2022/05/01 05:55:01;;;;;;;2.00;1.90;;;;;;;17.24;51.26;100563.06;1847660;77;20990;-65
2022/05/01 05:57:27;;;;;;;3.15;2.42;;;;;;;17.27;51.26;100560.52;1798173;77;21482;-65
2022/05/01 05:59:53;;;;;;;2.58;2.35;;;;;;;17.28;51.25;100555.45;1844933;76;20982;-64
2022/05/01 06:02:20;;;;;;;2.50;2.27;;;;;;;17.31;51.25;100555.08;1839781;78;21034;-63
2022/05/01 06:04:46;;;;;;;2.55;2.35;;;;;;;17.33;51.26;100556.23;1839686;78;22010;-65
2022/05/01 06:07:13;;;;;;;2.42;2.22;;;;;;;17.36;51.25;100554.49;1839715;77;20986;-64
2022/05/01 06:09:40;;;;;;;2.52;2.20;;;;;;;17.37;51.27;100554.83;1839811;78;21034;-63
2022/05/01 06:12:09;;;;;;;3.00;2.37;;;;;;;17.39;51.28;100557.62;1839840;78;21561;-65
2022/05/01 06:14:37;;;;;;;2.80;2.58;;;;;;;17.41;51.28;100552.89;1840130;78;21014;-65
2022/05/01 06:17:04;;;;;;;2.20;2.00;;;;;;;17.43;51.31;100557.56;1843225;76;21126;-64
2022/05/01 06:19:30;;;;;;;2.40;2.20;;;;;;;17.45;51.32;100549.31;1847772;77;21542;-64
2022/05/01 06:21:58;;;;;;;2.45;2.25;;;;;;;17.47;51.33;100557.48;1847753;77;21334;-65
2022/05/01 06:24:24;;;;;;;2.37;2.17;;;;;;;17.50;51.33;100557.62;1847813;77;21465;-65
2022/05/01 06:26:51;;;;;;;2.75;1.98;;;;;;;17.53;51.34;100555.06;1847798;77;21010;-64
2022/05/01 06:29:17;;;;;;;2.75;2.30;;;;;;;17.54;51.34;100557.56;1847960;77;21501;-65
2022/05/01 06:31:43;;;;;;;2.65;2.10;;;;;;;17.57;51.38;100557.67;1847750;77;20997;-64
2022/05/01 06:34:10;;;;;;;2.33;2.12;;;;;;;17.61;51.37;100555.73;1848213;76;20987;-65
2022/05/01 06:36:37;;;;;;;2.25;2.05;;;;;;;17.63;51.34;100552.86;1847921;77;21504;-64
2022/05/01 06:39:03;;;;;;;2.35;2.15;;;;;;;17.64;51.38;100548.64;1847826;77;20981;-65
2022/05/01 06:41:30;;;;;;;2.42;2.10;;;;;;;17.66;51.38;100558.68;1847828;77;21224;-65
2022/05/01 06:43:56;;;;;;;3.40;2.17;;;;;;;17.68;51.39;100549.91;1847585;77;21037;-65
2022/05/01 06:46:23;;;;;;;2.55;2.35;;;;;;;17.70;51.38;100552.41;1847752;77;21002;-65
2022/05/01 06:48:49;;;;;;;2.75;2.42;;;;;;;17.73;51.43;100551.17;1847768;77;21053;-65
2022/05/01 06:51:16;;;;;;;2.27;2.08;;;;;;;17.74;51.45;100541.58;1828439;77;21485;-63
2022/05/01 06:53:42;;;;;;;2.62;2.33;;;;;;;17.76;51.43;100544.08;1814359;79;21132;-65
2022/05/01 06:56:09;;;;;;;2.37;2.17;;;;;;;17.78;51.46;100542.03;1814392;79;21008;-65
2022/05/01 06:58:36;;;;;;;2.25;2.10;;;;;;;17.80;51.47;100543.48;1814575;78;21037;-64
2022/05/01 07:01:02;;;;;;;1.95;1.85;;;;;;;17.83;51.43;100550.34;1814477;78;20974;-65
2022/05/01 07:03:29;;;;;;;2.27;2.08;;;;;;;17.84;51.46;100547.47;1814462;79;21026;-65
2022/05/01 07:05:55;;;;;;;2.77;2.10;;;;;;;17.86;51.41;100547.28;1814487;79;21130;-65
2022/05/01 07:08:23;;;;;;;2.27;2.00;;;;;;;17.88;51.40;100543.88;1816360;76;21454;-64
2022/05/01 07:10:51;;;;;;;2.10;1.90;;;;;;;17.91;51.38;100552.08;1814400;78;21057;-65
2022/05/01 07:13:19;;;;;;;2.35;2.15;;;;;;;17.92;51.33;100545.14;1814540;78;21177;-64
2022/05/01 07:15:45;;;;;;;2.47;2.27;;;;;;;17.95;51.32;100547.97;1814464;79;21014;-65
2022/05/01 07:18:12;;;;;;;2.12;1.92;;;;;;;17.96;51.33;100544.23;1814466;78;21238;-64
2022/05/01 07:20:39;;;;;;;2.12;1.85;;;;;;;17.98;51.30;100547.06;1814376;78;21010;-66
2022/05/01 07:23:07;;;;;;;2.37;2.17;;;;;;;17.99;51.29;100544.68;1814494;77;21013;-65
2022/05/01 07:25:34;;;;;;;2.00;1.80;;;;;;;18.02;51.26;100547.48;1808276;77;20986;-66
2022/05/01 07:28:00;;;;;;;2.30;1.90;;;;;;;18.04;51.21;100552.14;1804253;79;21097;-65
2022/05/01 07:30:27;;;;;;;2.15;1.95;;;;;;;18.06;51.23;100550.12;1804258;79;21133;-65
2022/05/01 07:32:53;;;;;;;2.20;2.00;;;;;;;18.08;51.20;100548.05;1804166;79;20971;-65
2022/05/01 07:35:20;;;;;;;2.62;2.42;;;;;;;18.10;51.20;100546.00;1804212;79;21042;-64
2022/05/01 07:37:47;;;;;;;2.35;2.15;;;;;;;18.11;51.17;100543.61;1817463;78;21012;-65
2022/05/01 07:40:14;;;;;;;2.02;1.82;;;;;;;18.15;51.12;100549.42;1812883;78;20980;-64
2022/05/01 07:42:40;;;;;;;2.30;2.10;;;;;;;18.15;51.07;100547.56;1833879;77;21466;-64
2022/05/01 07:45:09;;;;;;;2.55;2.27;;;;;;;18.17;51.10;100541.98;1768788;81;21017;-64
2022/05/01 07:47:36;;;;;;;2.15;1.62;;;;;;;18.18;51.10;100542.32;1783840;80;21529;-64
2022/05/01 07:50:06;;;;;;;2.90;2.00;;;;;;;18.21;51.07;100538.69;1783859;80;21025;-65
2022/05/01 07:52:33;;;;;;;2.40;2.00;;;;;;;18.22;51.05;100532.82;1784111;80;21089;-65
2022/05/01 07:55:01;;;;;;;2.47;2.27;;;;;;;18.24;51.07;100534.27;1783843;80;22143;-65
2022/05/01 07:57:28;;;;;;;2.27;2.08;;;;;;;18.26;51.05;100538.11;1784144;80;21562;-64
2022/05/01 07:59:55;;;;;;;2.65;2.45;;;;;;;18.26;51.03;100537.59;1783128;80;21017;-65
2022/05/01 08:02:21;;;;;;;2.30;2.10;;;;;;;18.28;51.02;100536.88;1783852;80;21057;-64
2022/05/01 08:04:48;;;;;;;1.95;1.85;;;;;;;18.29;50.97;100536.35;1784090;80;21101;-66
2022/05/01 08:07:15;;;;;;;2.20;2.00;;;;;;;18.30;50.95;100538.03;1783902;80;21132;-64
2022/05/01 08:09:43;;;;;;;1.82;1.62;;;;;;;18.32;50.94;100537.84;1783888;80;21561;-65
2022/05/01 08:12:10;;;;;;;1.90;1.80;;;;;;;18.33;50.93;100539.48;1783914;80;21002;-65
2022/05/01 08:14:41;;;;;;;2.00;1.80;;;;;;;18.33;50.88;100536.79;1783970;80;21077;-64
2022/05/01 08:17:05;;;;;;;2.00;1.80;;;;;;;18.34;50.87;100533.08;1782617;80;21009;-64
2022/05/01 08:22:17;;;;;;;1.87;1.77;;;;;;;18.35;50.80;100532.04;1783904;80;21001;-64
2022/05/01 08:24:43;;;;;;;2.37;1.87;;;;;;;18.35;50.74;100530.20;1788468;78;21554;-64
2022/05/01 08:27:11;;;;;;;2.25;1.95;;;;;;;18.37;50.75;100530.83;1779224;80;21001;-65
2022/05/01 08:29:38;;;;;;;2.10;1.90;;;;;;;18.39;50.70;100524.73;1854229;77;20983;-65
2022/05/01 08:32:06;;;;;;;2.33;2.12;;;;;;;18.42;50.68;100524.31;1853811;77;21117;-65
2022/05/01 08:34:35;;;;;;;2.00;1.80;;;;;;;18.44;50.68;100520.08;1854067;77;21045;-64
2022/05/01 08:37:04;;;;;;;2.05;1.85;;;;;;;18.47;50.70;100517.00;1851069;76;21234;-64
2022/05/01 08:39:31;;;;;;;2.33;2.00;;;;;;;18.50;50.66;100520.62;1848458;77;21022;-65
2022/05/01 08:41:59;;;;;;;2.02;1.82;;;;;;;18.53;50.65;100522.09;1848576;77;21536;-65
2022/05/01 08:44:34;;;;;;;2.20;2.00;;;;;;;18.56;50.67;100514.95;1848411;77;21206;-65
2022/05/01 08:47:23;;;;;;;1.92;1.82;;;;;;;18.57;50.68;100510.72;1848708;77;21057;-64
2022/05/01 08:49:55;;;;;;;2.30;2.05;;;;;;;18.61;50.70;100511.15;1848600;77;21025;-64
2022/05/01 08:52:22;;;;;;;1.85;1.67;;;;;;;18.63;50.78;100509.08;1848842;77;21006;-65
2022/05/01 08:54:48;;;;;;;1.85;1.72;;;;;;;18.64;50.72;100511.58;1848512;77;21060;-63
2022/05/01 08:57:21;;;;;;;1.98;1.77;;;;;;;18.66;50.73;100504.13;1848456;77;21142;-64
2022/05/01 08:59:53;;;;;;;1.87;1.70;;;;;;;18.70;50.82;100499.67;1848481;77;21006;-65
2022/05/01 09:02:21;;;;;;;2.05;1.85;;;;;;;18.73;50.85;100499.28;1818457;77;21573;-65
2022/05/01 09:04:48;;;;;;;2.55;2.35;;;;;;;18.75;50.99;100489.95;1848301;77;21107;-65
2022/05/01 09:07:15;;;;;;;1.72;1.62;;;;;;;18.79;51.00;100492.55;1848764;77;21049;-64
2022/05/01 09:09:42;;;;;;;2.00;1.80;;;;;;;18.80;51.00;100491.56;1848444;77;21142;-64
2022/05/01 09:14:56;;;;;;;2.10;1.90;;;;;;;18.86;50.93;100496.12;1848382;77;20990;-64
2022/05/01 09:17:23;;;;;;;2.42;2.22;;;;;;;18.89;51.05;100490.88;1848688;77;20998;-64
2022/05/01 09:19:54;;;;;;;1.95;1.82;;;;;;;18.91;51.03;100492.84;1848469;77;20978;-64
2022/05/01 09:22:21;;;;;;;2.00;1.80;;;;;;;18.93;51.06;100486.73;1845493;77;21086;-64
2022/05/01 09:24:54;;;;;;;1.95;1.85;;;;;;;18.95;51.00;100491.88;1848219;77;20990;-65
2022/05/01 09:27:30;;;;;;;1.90;1.80;;;;;;;18.96;51.00;100487.65;1845977;77;20990;-65
2022/05/01 09:30:09;;;;;;;2.00;1.85;;;;;;;18.97;51.04;100486.62;1845690;77;21364;-64
2022/05/01 09:32:39;;;;;;;1.80;1.70;;;;;;;19.01;50.98;100483.02;1845828;77;20986;-65
2022/05/01 09:35:09;;;;;;;1.90;1.80;;;;;;;19.02;51.04;100484.13;1845666;77;21141;-65
2022/05/01 09:37:36;;;;;;;1.80;1.70;;;;;;;19.04;51.04;100482.58;1853880;77;21030;-65
2022/05/01 09:40:04;;;;;;;2.20;2.00;;;;;;;19.08;51.05;100480.31;1857482;76;21555;-65
2022/05/01 09:42:34;;;;;;;2.15;1.95;;;;;;;19.09;51.13;100478.77;1857029;77;21068;-65
2022/05/01 09:45:07;;;;;;;1.92;1.80;;;;;;;19.14;51.23;100476.79;1855960;77;21056;-65
2022/05/01 09:47:41;;;;;;;;;;;;;;;19.17;51.12;100475.05;1859560;77;21301;-64
2022/05/01 09:50:09;;;;;;;2.00;1.80;;;;;;;19.20;51.11;100470.08;1856949;77;20478;-65
2022/05/01 09:52:57;;;;;;;1.80;1.70;;;;;;;19.23;51.11;100468.30;1856827;77;21544;-65
2022/05/01 09:55:25;;;;;;;2.92;2.33;;;;;;;19.26;51.12;100473.80;1856709;77;21021;-64
2022/05/01 09:58:12;;;;;;;1.80;1.70;;;;;;;19.29;51.08;100467.98;1855597;77;21040;-64
2022/05/01 10:00:45;;;;;;;2.25;2.05;;;;;;;19.32;51.08;100471.63;1856833;77;21282;-65
2022/05/01 10:03:27;;;;;;;1.75;1.60;;;;;;;19.35;51.19;100469.02;1856698;77;21470;-65
2022/05/01 10:05:57;;;;;;;2.00;1.80;;;;;;;19.37;51.07;100465.11;1856865;77;21021;-64
2022/05/01 10:08:24;;;;;;;1.80;1.70;;;;;;;19.42;51.02;100467.16;1857133;77;21008;-64
2022/05/01 10:10:55;;;;;;;1.65;1.55;;;;;;;19.47;51.04;100470.56;1856774;77;21044;-64
2022/05/01 10:13:24;;;;;;;1.60;1.50;;;;;;;19.51;51.06;100468.61;1781841;80;21123;-65
2022/05/01 10:15:52;;;;;;;1.90;1.70;;;;;;;19.56;51.15;100467.45;1855572;77;21005;-64
2022/05/01 10:18:19;;;;;;;1.60;1.50;;;;;;;19.60;51.11;100462.47;1856929;77;21035;-63
2022/05/01 10:20:46;;;;;;;1.60;1.50;;;;;;;19.62;51.05;100455.85;1856748;77;20966;-65
2022/05/01 10:23:12;;;;;;;1.82;1.72;;;;;;;19.66;50.98;100461.63;1856730;77;21013;-65
2022/05/01 10:25:50;;;;;;;1.65;1.55;;;;;;;19.68;51.02;100454.16;1813904;78;21138;-64
2022/05/01 10:28:23;;;;;;;1.60;1.50;;;;;;;19.72;51.00;100453.25;1820161;78;21061;-65
2022/05/01 10:34:35;;;;;;;1.70;1.60;;;;;;;19.79;50.93;100449.50;1763458;79;21111;-64
2022/05/01 10:37:30;;;;;;;1.80;1.70;;;;;;;19.83;50.97;100448.56;1804707;78;21534;-64
2022/05/01 10:39:57;;;;;;;1.57;1.47;;;;;;;19.84;50.92;100447.00;1819913;78;21212;-64
2022/05/01 10:42:52;;;;;;;1.72;1.62;;;;;;;19.86;50.92;100444.59;1808923;78;21442;-65
2022/05/01 10:45:27;;;;;;;1.80;1.70;;;;;;;19.87;50.90;100444.39;1808860;79;21497;-64
2022/05/01 10:47:56;;;;;;;1.82;1.72;;;;;;;19.89;50.84;100442.84;1809097;78;21075;-65
2022/05/01 10:50:25;;;;;;;1.85;1.75;;;;;;;19.90;50.86;100439.12;1788050;80;21017;-64
2022/05/01 10:53:08;;;;;;;1.80;1.70;;;;;;;19.90;50.79;100439.94;1788249;79;20997;-64
2022/05/01 10:55:52;;;;;;;2.00;1.90;;;;;;;19.92;50.79;100436.51;1787886;79;21069;-64
2022/05/01 10:58:30;;;;;;;2.10;1.90;;;;;;;19.93;50.79;100437.33;1787951;80;21022;-64
2022/05/01 11:00:57;;;;;;;1.95;1.75;;;;;;;19.94;50.70;100432.26;1787988;80;21009;-64
2022/05/01 11:03:29;;;;;;;2.45;1.77;;;;;;;19.95;50.72;100430.70;1787974;80;21486;-65
2022/05/01 11:06:08;;;;;;;2.10;1.77;;;;;;;20.00;50.83;100430.05;1789179;78;21113;-64
2022/05/01 11:08:36;;;;;;;1.85;1.70;;;;;;;20.05;50.75;100435.64;1787969;79;21075;-65
2022/05/01 11:11:05;;;;;;;1.72;1.62;;;;;;;20.13;50.60;100430.53;1788267;79;21033;-64
2022/05/01 11:13:38;;;;;;;3.00;2.33;;;;;;;20.23;50.45;100431.70;1768785;80;21102;-65
2022/05/01 11:16:06;;;;;;;1.60;1.50;;;;;;;20.32;50.35;100431.45;1788049;79;21486;-64
2022/05/01 11:18:45;;;;;;;1.70;1.60;;;;;;;20.42;50.16;100423.73;1788050;80;21943;-64
2022/05/01 11:21:27;;;;;;;2.33;2.12;;;;;;;20.52;50.07;100417.34;1787971;80;21017;-65
2022/05/01 11:24:04;;;;;;;2.02;1.85;;;;;;;20.63;49.99;100417.20;1789141;78;21635;-64
2022/05/01 11:26:32;;;;;;;2.05;1.85;;;;;;;20.73;49.95;100412.14;1803136;79;21016;-64
2022/05/01 11:29:17;;;;;;;1.60;1.50;;;;;;;20.85;49.91;100408.21;1814333;78;21009;-65
2022/05/01 11:31:44;;;;;;;2.00;1.65;;;;;;;20.95;49.90;100410.42;1814381;79;21041;-64
2022/05/01 11:34:21;;;;;;;1.87;1.77;;;;;;;21.03;49.93;100408.78;1814484;78;21056;-65
2022/05/01 11:37:08;;;;;;;2.75;2.10;;;;;;;21.09;50.08;100401.67;1813108;77;21021;-64
2022/05/01 11:41:11;;;;;;;2.00;1.85;;;;;;;21.17;50.02;100406.79;1871117;76;22728;-64
2022/05/01 11:43:37;;;;;;;2.67;2.17;;;;;;;21.16;49.98;100411.38;1840932;78;20974;-64
2022/05/01 11:46:04;;;;;;;2.45;1.98;;;;;;;21.17;49.98;100404.94;1840830;77;21937;-64
2022/05/01 11:48:31;;;;;;;2.00;1.80;;;;;;;21.17;49.95;100406.29;1840765;78;21026;-64
2022/05/01 11:51:01;;;;;;;3.35;2.00;;;;;;;21.17;49.92;100395.98;1840699;77;21108;-65
2022/05/01 11:53:32;;;;;;;2.20;2.00;;;;;;;21.18;49.90;100396.30;1840873;78;20979;-66
2022/05/01 12:04:37;;;;;;;1.60;1.50;;;;;;;21.35;49.58;100397.91;1860168;77;21532;-64
2022/05/01 12:07:21;;;;;;;2.27;1.80;;;;;;;21.45;49.45;100396.89;1860068;77;21092;-63